sensor_id;sensor_type;location;lat;lon;timestamp;pressure;altitude;pressure_sealevel;temperature;humidity
10921;BME280;5513;50.580;8.818;2023-07-13T00:01:15;98915.50;;;18.92;100.00
10921;BME280;5513;50.580;8.818;2023-07-13T00:03:44;98916.19;;;18.94;100.00
10921;BME280;5513;50.580;8.818;2023-07-13T00:06:13;98913.84;;;18.99;100.00
10921;BME280;5513;50.580;8.818;2023-07-13T00:08:42;98915.59;;;19.08;100.00
10921;BME280;5513;50.580;8.818;2023-07-13T00:11:11;98906.91;;;19.14;100.00
10921;BME280;5513;50.580;8.818;2023-07-13T00:13:40;98910.66;;;19.22;100.00
10921;BME280;5513;50.580;8.818;2023-07-13T00:16:11;98906.06;;;19.14;100.00
10921;BME280;5513;50.580;8.818;2023-07-13T00:18:41;98903.53;;;18.86;100.00
10921;BME280;5513;50.580;8.818;2023-07-13T00:21:11;98910.41;;;18.89;100.00
10921;BME280;5513;50.580;8.818;2023-07-13T00:23:41;98917.91;;;18.77;100.00
10921;BME280;5513;50.580;8.818;2023-07-13T00:26:11;98919.22;;;18.73;100.00
10921;BME280;5513;50.580;8.818;2023-07-13T00:28:41;98910.66;;;18.60;100.00
10921;BME280;5513;50.580;8.818;2023-07-13T00:31:13;98921.56;;;18.58;100.00
10921;BME280;5513;50.580;8.818;2023-07-13T00:33:42;98919.06;;;18.75;100.00
10921;BME280;5513;50.580;8.818;2023-07-13T00:36:11;98921.50;;;18.68;100.00
10921;BME280;5513;50.580;8.818;2023-07-13T00:38:42;98925.84;;;18.51;100.00
10921;BME280;5513;50.580;8.818;2023-07-13T00:41:10;98928.78;;;18.40;100.00
10921;BME280;5513;50.580;8.818;2023-07-13T00:43:40;98930.28;;;18.60;100.00
10921;BME280;5513;50.580;8.818;2023-07-13T00:46:23;98931.97;;;18.62;100.00
10921;BME280;5513;50.580;8.818;2023-07-13T00:48:53;98931.63;;;18.56;100.00
10921;BME280;5513;50.580;8.818;2023-07-13T00:51:27;98930.25;;;18.70;100.00
10921;BME280;5513;50.580;8.818;2023-07-13T00:53:58;98943.72;;;18.60;100.00
10921;BME280;5513;50.580;8.818;2023-07-13T00:56:28;98942.66;;;18.53;100.00
10921;BME280;5513;50.580;8.818;2023-07-13T00:59:00;98935.28;;;18.55;100.00
10921;BME280;5513;50.580;8.818;2023-07-13T01:01:32;98943.41;;;18.64;100.00
10921;BME280;5513;50.580;8.818;2023-07-13T01:04:04;98947.66;;;18.66;100.00
10921;BME280;5513;50.580;8.818;2023-07-13T01:06:35;98952.00;;;18.31;100.00
10921;BME280;5513;50.580;8.818;2023-07-13T01:09:06;98955.38;;;18.51;100.00
10921;BME280;5513;50.580;8.818;2023-07-13T01:11:36;98949.72;;;18.54;100.00
10921;BME280;5513;50.580;8.818;2023-07-13T01:14:05;98955.44;;;18.59;100.00
10921;BME280;5513;50.580;8.818;2023-07-13T01:16:36;98959.28;;;18.57;100.00
10921;BME280;5513;50.580;8.818;2023-07-13T01:19:11;98960.81;;;18.59;100.00
10921;BME280;5513;50.580;8.818;2023-07-13T01:21:49;98958.81;;;18.62;100.00
10921;BME280;5513;50.580;8.818;2023-07-13T01:24:23;98966.47;;;18.39;100.00
10921;BME280;5513;50.580;8.818;2023-07-13T01:26:53;98960.53;;;18.45;100.00
10921;BME280;5513;50.580;8.818;2023-07-13T01:29:22;98947.78;;;18.47;100.00
10921;BME280;5513;50.580;8.818;2023-07-13T01:31:50;98946.41;;;18.60;100.00
10921;BME280;5513;50.580;8.818;2023-07-13T01:34:19;98952.47;;;18.45;100.00
10921;BME280;5513;50.580;8.818;2023-07-13T01:36:48;98951.91;;;18.41;100.00
10921;BME280;5513;50.580;8.818;2023-07-13T01:39:21;98947.03;;;18.37;100.00
10921;BME280;5513;50.580;8.818;2023-07-13T01:41:49;98940.59;;;18.47;100.00
10921;BME280;5513;50.580;8.818;2023-07-13T01:44:22;98945.13;;;18.65;100.00
10921;BME280;5513;50.580;8.818;2023-07-13T01:46:51;98939.81;;;18.55;100.00
10921;BME280;5513;50.580;8.818;2023-07-13T01:49:19;98947.22;;;18.61;100.00
10921;BME280;5513;50.580;8.818;2023-07-13T01:51:51;98938.66;;;18.57;100.00
10921;BME280;5513;50.580;8.818;2023-07-13T01:54:20;98934.09;;;18.68;100.00
10921;BME280;5513;50.580;8.818;2023-07-13T01:56:48;98940.50;;;18.57;100.00
10921;BME280;5513;50.580;8.818;2023-07-13T01:59:19;98941.13;;;18.69;100.00
10921;BME280;5513;50.580;8.818;2023-07-13T02:01:47;98942.28;;;18.66;100.00
10921;BME280;5513;50.580;8.818;2023-07-13T02:04:16;98943.03;;;18.76;100.00
10921;BME280;5513;50.580;8.818;2023-07-13T02:06:44;98945.97;;;18.65;100.00
10921;BME280;5513;50.580;8.818;2023-07-13T02:09:15;98940.44;;;18.67;100.00
10921;BME280;5513;50.580;8.818;2023-07-13T02:11:44;98942.81;;;18.70;100.00
10921;BME280;5513;50.580;8.818;2023-07-13T02:14:12;98948.19;;;18.70;100.00
10921;BME280;5513;50.580;8.818;2023-07-13T02:16:42;98955.94;;;18.73;100.00
10921;BME280;5513;50.580;8.818;2023-07-13T02:19:11;98955.53;;;18.50;100.00
10921;BME280;5513;50.580;8.818;2023-07-13T02:21:40;98949.31;;;18.49;100.00
10921;BME280;5513;50.580;8.818;2023-07-13T02:24:09;98949.47;;;18.48;100.00
10921;BME280;5513;50.580;8.818;2023-07-13T02:26:45;98954.84;;;18.48;100.00
10921;BME280;5513;50.580;8.818;2023-07-13T02:29:14;98952.22;;;18.38;100.00
10921;BME280;5513;50.580;8.818;2023-07-13T02:31:47;98954.06;;;18.20;100.00
10921;BME280;5513;50.580;8.818;2023-07-13T02:34:19;98955.88;;;18.19;100.00
10921;BME280;5513;50.580;8.818;2023-07-13T02:36:48;98956.25;;;18.07;100.00
10921;BME280;5513;50.580;8.818;2023-07-13T02:39:17;98952.66;;;17.98;100.00
10921;BME280;5513;50.580;8.818;2023-07-13T02:41:48;98946.94;;;17.83;100.00
10921;BME280;5513;50.580;8.818;2023-07-13T02:44:17;98948.81;;;17.73;100.00
10921;BME280;5513;50.580;8.818;2023-07-13T02:46:47;98950.88;;;17.89;100.00
10921;BME280;5513;50.580;8.818;2023-07-13T02:49:18;98947.56;;;17.77;100.00
10921;BME280;5513;50.580;8.818;2023-07-13T02:51:46;98952.72;;;17.88;100.00
10921;BME280;5513;50.580;8.818;2023-07-13T02:54:15;98956.69;;;18.02;100.00
10921;BME280;5513;50.580;8.818;2023-07-13T02:56:44;98964.38;;;17.97;100.00
10921;BME280;5513;50.580;8.818;2023-07-13T02:59:14;98956.47;;;17.95;100.00
10921;BME280;5513;50.580;8.818;2023-07-13T03:01:42;98970.22;;;17.83;100.00
10921;BME280;5513;50.580;8.818;2023-07-13T03:04:11;98964.75;;;17.74;100.00
10921;BME280;5513;50.580;8.818;2023-07-13T03:06:39;98949.03;;;17.52;100.00
10921;BME280;5513;50.580;8.818;2023-07-13T03:09:08;98960.16;;;17.57;100.00
10921;BME280;5513;50.580;8.818;2023-07-13T03:11:36;98956.34;;;17.60;100.00
10921;BME280;5513;50.580;8.818;2023-07-13T03:14:05;98964.72;;;17.47;100.00
10921;BME280;5513;50.580;8.818;2023-07-13T03:16:35;98968.47;;;17.54;100.00
10921;BME280;5513;50.580;8.818;2023-07-13T03:19:04;98973.09;;;17.62;100.00
10921;BME280;5513;50.580;8.818;2023-07-13T03:21:33;98970.59;;;17.51;100.00
10921;BME280;5513;50.580;8.818;2023-07-13T03:24:01;98970.69;;;17.68;100.00
10921;BME280;5513;50.580;8.818;2023-07-13T03:26:30;98974.09;;;17.70;100.00
10921;BME280;5513;50.580;8.818;2023-07-13T03:28:58;98979.44;;;17.70;100.00
10921;BME280;5513;50.580;8.818;2023-07-13T03:31:35;98983.44;;;17.57;100.00
10921;BME280;5513;50.580;8.818;2023-07-13T03:34:04;98981.75;;;17.46;100.00
10921;BME280;5513;50.580;8.818;2023-07-13T03:36:33;98984.00;;;17.51;100.00
10921;BME280;5513;50.580;8.818;2023-07-13T03:39:03;98993.84;;;17.60;100.00
10921;BME280;5513;50.580;8.818;2023-07-13T03:41:36;98991.00;;;17.61;100.00
10921;BME280;5513;50.580;8.818;2023-07-13T03:44:04;99000.00;;;17.80;100.00
10921;BME280;5513;50.580;8.818;2023-07-13T03:46:34;99001.00;;;17.69;100.00
10921;BME280;5513;50.580;8.818;2023-07-13T03:49:04;99008.03;;;17.80;100.00
10921;BME280;5513;50.580;8.818;2023-07-13T03:51:32;99000.09;;;17.88;100.00
10921;BME280;5513;50.580;8.818;2023-07-13T03:54:04;99002.81;;;17.78;100.00
10921;BME280;5513;50.580;8.818;2023-07-13T03:56:33;99013.22;;;17.81;100.00
10921;BME280;5513;50.580;8.818;2023-07-13T03:59:02;99005.38;;;17.60;100.00
10921;BME280;5513;50.580;8.818;2023-07-13T04:01:35;99012.63;;;17.50;100.00
10921;BME280;5513;50.580;8.818;2023-07-13T04:04:07;99013.22;;;17.34;100.00
10921;BME280;5513;50.580;8.818;2023-07-13T04:06:35;99021.25;;;17.34;100.00
10921;BME280;5513;50.580;8.818;2023-07-13T04:09:04;99005.53;;;17.12;100.00
10921;BME280;5513;50.580;8.818;2023-07-13T04:11:33;99014.09;;;17.06;100.00
10921;BME280;5513;50.580;8.818;2023-07-13T04:14:03;99023.00;;;16.97;100.00
10921;BME280;5513;50.580;8.818;2023-07-13T04:16:35;99022.00;;;16.69;100.00
10921;BME280;5513;50.580;8.818;2023-07-13T04:19:04;99016.75;;;16.67;100.00
10921;BME280;5513;50.580;8.818;2023-07-13T04:21:32;99017.47;;;16.59;100.00
10921;BME280;5513;50.580;8.818;2023-07-13T04:24:01;99012.25;;;16.48;100.00
10921;BME280;5513;50.580;8.818;2023-07-13T04:26:30;99026.34;;;16.50;100.00
10921;BME280;5513;50.580;8.818;2023-07-13T04:28:58;99016.53;;;16.70;100.00
10921;BME280;5513;50.580;8.818;2023-07-13T04:31:27;99021.03;;;16.70;100.00
10921;BME280;5513;50.580;8.818;2023-07-13T04:33:56;99016.78;;;16.77;100.00
10921;BME280;5513;50.580;8.818;2023-07-13T04:36:25;99020.75;;;16.82;100.00
10921;BME280;5513;50.580;8.818;2023-07-13T04:38:55;99022.41;;;16.64;100.00
10921;BME280;5513;50.580;8.818;2023-07-13T04:41:24;99018.38;;;16.89;100.00
10921;BME280;5513;50.580;8.818;2023-07-13T04:43:52;99021.75;;;16.81;100.00
10921;BME280;5513;50.580;8.818;2023-07-13T04:46:23;99017.50;;;16.98;100.00
10921;BME280;5513;50.580;8.818;2023-07-13T04:48:51;99016.66;;;16.98;100.00
10921;BME280;5513;50.580;8.818;2023-07-13T04:51:22;99021.28;;;17.05;100.00
10921;BME280;5513;50.580;8.818;2023-07-13T04:53:51;99022.69;;;17.29;100.00
10921;BME280;5513;50.580;8.818;2023-07-13T04:56:26;99020.06;;;17.46;100.00
10921;BME280;5513;50.580;8.818;2023-07-13T04:58:55;99025.34;;;17.38;100.00
10921;BME280;5513;50.580;8.818;2023-07-13T05:01:25;99022.28;;;17.04;100.00
10921;BME280;5513;50.580;8.818;2023-07-13T05:03:54;99022.13;;;17.06;100.00
10921;BME280;5513;50.580;8.818;2023-07-13T05:06:26;99019.13;;;17.38;100.00
10921;BME280;5513;50.580;8.818;2023-07-13T05:08:57;99022.59;;;17.58;100.00
10921;BME280;5513;50.580;8.818;2023-07-13T05:11:27;99020.00;;;17.66;100.00
10921;BME280;5513;50.580;8.818;2023-07-13T05:13:56;99025.97;;;17.60;100.00
10921;BME280;5513;50.580;8.818;2023-07-13T05:16:25;99030.75;;;17.56;100.00
10921;BME280;5513;50.580;8.818;2023-07-13T05:18:54;99027.94;;;17.77;100.00
10921;BME280;5513;50.580;8.818;2023-07-13T05:21:23;99025.66;;;17.72;100.00
10921;BME280;5513;50.580;8.818;2023-07-13T05:23:53;99028.84;;;17.95;100.00
10921;BME280;5513;50.580;8.818;2023-07-13T05:26:25;99029.22;;;18.00;100.00
10921;BME280;5513;50.580;8.818;2023-07-13T05:28:54;99034.28;;;18.03;100.00
10921;BME280;5513;50.580;8.818;2023-07-13T05:31:22;99032.91;;;17.99;100.00
10921;BME280;5513;50.580;8.818;2023-07-13T05:33:51;99034.78;;;17.89;100.00
10921;BME280;5513;50.580;8.818;2023-07-13T05:36:19;99037.34;;;17.81;100.00
10921;BME280;5513;50.580;8.818;2023-07-13T05:38:48;99044.25;;;17.84;100.00
10921;BME280;5513;50.580;8.818;2023-07-13T05:41:17;99037.31;;;17.91;100.00
10921;BME280;5513;50.580;8.818;2023-07-13T05:43:46;99031.69;;;17.84;100.00
10921;BME280;5513;50.580;8.818;2023-07-13T05:46:20;99045.50;;;17.89;100.00
10921;BME280;5513;50.580;8.818;2023-07-13T05:48:49;99038.41;;;17.98;100.00
10921;BME280;5513;50.580;8.818;2023-07-13T05:51:18;99036.78;;;17.87;100.00
10921;BME280;5513;50.580;8.818;2023-07-13T05:53:46;99047.00;;;18.01;100.00
10921;BME280;5513;50.580;8.818;2023-07-13T05:56:15;99053.00;;;18.13;100.00
10921;BME280;5513;50.580;8.818;2023-07-13T05:58:47;99042.47;;;18.02;100.00
10921;BME280;5513;50.580;8.818;2023-07-13T06:01:16;99041.09;;;17.98;100.00
10921;BME280;5513;50.580;8.818;2023-07-13T06:03:47;99041.66;;;17.92;100.00
10921;BME280;5513;50.580;8.818;2023-07-13T06:06:15;99045.53;;;18.17;100.00
10921;BME280;5513;50.580;8.818;2023-07-13T06:08:44;99047.69;;;18.03;100.00
10921;BME280;5513;50.580;8.818;2023-07-13T06:11:15;99049.19;;;18.16;100.00
10921;BME280;5513;50.580;8.818;2023-07-13T06:13:46;99062.25;;;18.28;100.00
10921;BME280;5513;50.580;8.818;2023-07-13T06:16:15;99059.41;;;18.30;100.00
10921;BME280;5513;50.580;8.818;2023-07-13T06:18:45;99052.75;;;18.34;100.00
10921;BME280;5513;50.580;8.818;2023-07-13T06:21:15;99054.44;;;18.35;100.00
10921;BME280;5513;50.580;8.818;2023-07-13T06:23:45;99046.78;;;18.40;100.00
10921;BME280;5513;50.580;8.818;2023-07-13T06:26:15;99059.84;;;18.53;100.00
10921;BME280;5513;50.580;8.818;2023-07-13T06:28:43;99068.44;;;18.56;100.00
10921;BME280;5513;50.580;8.818;2023-07-13T06:31:16;99068.41;;;18.39;100.00
10921;BME280;5513;50.580;8.818;2023-07-13T06:33:44;99066.75;;;18.55;100.00
10921;BME280;5513;50.580;8.818;2023-07-13T06:36:15;99075.84;;;18.72;100.00
10921;BME280;5513;50.580;8.818;2023-07-13T06:38:43;99076.00;;;18.88;100.00
10921;BME280;5513;50.580;8.818;2023-07-13T06:41:11;99084.38;;;18.85;100.00
10921;BME280;5513;50.580;8.818;2023-07-13T06:43:40;99073.09;;;18.82;100.00
10921;BME280;5513;50.580;8.818;2023-07-13T06:46:09;99073.22;;;18.80;100.00
10921;BME280;5513;50.580;8.818;2023-07-13T06:48:40;99080.59;;;18.78;99.78
10921;BME280;5513;50.580;8.818;2023-07-13T06:51:08;99075.63;;;19.01;100.00
10921;BME280;5513;50.580;8.818;2023-07-13T06:53:43;99078.59;;;19.16;97.94
10921;BME280;5513;50.580;8.818;2023-07-13T06:56:11;99075.47;;;19.21;96.74
10921;BME280;5513;50.580;8.818;2023-07-13T06:58:39;99071.69;;;19.31;96.50
10921;BME280;5513;50.580;8.818;2023-07-13T07:01:08;99076.41;;;19.37;95.48
10921;BME280;5513;50.580;8.818;2023-07-13T07:03:46;99077.69;;;19.69;97.83
10921;BME280;5513;50.580;8.818;2023-07-13T07:06:17;99087.13;;;19.73;94.95
10921;BME280;5513;50.580;8.818;2023-07-13T07:08:46;99087.84;;;19.83;94.28
10921;BME280;5513;50.580;8.818;2023-07-13T07:11:17;99082.22;;;19.94;92.59
10921;BME280;5513;50.580;8.818;2023-07-13T07:13:46;99083.66;;;19.81;91.77
10921;BME280;5513;50.580;8.818;2023-07-13T07:16:14;99086.63;;;19.78;94.37
10921;BME280;5513;50.580;8.818;2023-07-13T07:18:47;99088.91;;;19.64;92.03
10921;BME280;5513;50.580;8.818;2023-07-13T07:21:15;99087.00;;;19.83;90.76
10921;BME280;5513;50.580;8.818;2023-07-13T07:23:43;99088.63;;;20.01;91.17
10921;BME280;5513;50.580;8.818;2023-07-13T07:26:12;99096.53;;;19.77;89.63
10921;BME280;5513;50.580;8.818;2023-07-13T07:28:40;99094.41;;;20.15;88.95
10921;BME280;5513;50.580;8.818;2023-07-13T07:31:14;99097.50;;;20.28;86.27
10921;BME280;5513;50.580;8.818;2023-07-13T07:33:48;99083.53;;;19.90;85.55
10921;BME280;5513;50.580;8.818;2023-07-13T07:36:18;99094.75;;;20.12;87.96
10921;BME280;5513;50.580;8.818;2023-07-13T07:38:49;99088.00;;;20.08;88.07
10921;BME280;5513;50.580;8.818;2023-07-13T07:41:18;99083.47;;;20.08;87.16
10921;BME280;5513;50.580;8.818;2023-07-13T07:43:49;99079.34;;;19.96;87.96
10921;BME280;5513;50.580;8.818;2023-07-13T07:46:17;99089.06;;;20.57;87.50
10921;BME280;5513;50.580;8.818;2023-07-13T07:48:48;99094.97;;;20.61;84.07
10921;BME280;5513;50.580;8.818;2023-07-13T07:51:17;99080.72;;;20.76;82.36
10921;BME280;5513;50.580;8.818;2023-07-13T07:53:47;99094.47;;;20.65;82.25
10921;BME280;5513;50.580;8.818;2023-07-13T07:56:15;99086.22;;;20.58;83.74
10921;BME280;5513;50.580;8.818;2023-07-13T07:58:47;99090.66;;;20.76;81.52
10921;BME280;5513;50.580;8.818;2023-07-13T08:01:18;99094.19;;;20.42;80.75
10921;BME280;5513;50.580;8.818;2023-07-13T08:03:51;99095.19;;;20.41;82.76
10921;BME280;5513;50.580;8.818;2023-07-13T08:06:22;99096.56;;;20.88;80.32
10921;BME280;5513;50.580;8.818;2023-07-13T08:08:54;99101.13;;;20.95;78.19
10921;BME280;5513;50.580;8.818;2023-07-13T08:11:22;99089.84;;;21.08;78.86
10921;BME280;5513;50.580;8.818;2023-07-13T08:13:54;99094.88;;;21.03;77.90
10921;BME280;5513;50.580;8.818;2023-07-13T08:16:22;99101.31;;;21.18;79.78
10921;BME280;5513;50.580;8.818;2023-07-13T08:18:53;99093.50;;;20.82;77.06
10921;BME280;5513;50.580;8.818;2023-07-13T08:21:22;99097.06;;;20.99;78.98
10921;BME280;5513;50.580;8.818;2023-07-13T08:23:52;99100.09;;;20.88;77.57
10921;BME280;5513;50.580;8.818;2023-07-13T08:26:20;99101.03;;;20.71;79.43
10921;BME280;5513;50.580;8.818;2023-07-13T08:28:49;99100.03;;;20.72;77.09
10921;BME280;5513;50.580;8.818;2023-07-13T08:31:17;99098.66;;;20.60;79.94
10921;BME280;5513;50.580;8.818;2023-07-13T08:33:48;99098.84;;;20.58;76.99
10921;BME280;5513;50.580;8.818;2023-07-13T08:36:18;99098.91;;;20.91;76.34
10921;BME280;5513;50.580;8.818;2023-07-13T08:38:46;99104.63;;;20.88;75.36
10921;BME280;5513;50.580;8.818;2023-07-13T08:41:16;99103.72;;;20.63;80.11
10921;BME280;5513;50.580;8.818;2023-07-13T08:43:49;99096.69;;;20.78;78.84
10921;BME280;5513;50.580;8.818;2023-07-13T08:46:26;99099.69;;;20.75;77.81
10921;BME280;5513;50.580;8.818;2023-07-13T08:48:59;99103.63;;;20.89;78.81
10921;BME280;5513;50.580;8.818;2023-07-13T08:51:37;99112.03;;;20.94;78.78
10921;BME280;5513;50.580;8.818;2023-07-13T08:54:15;99108.78;;;20.74;77.49
10921;BME280;5513;50.580;8.818;2023-07-13T08:56:46;99116.09;;;21.22;76.96
10921;BME280;5513;50.580;8.818;2023-07-13T08:59:16;99112.31;;;21.33;75.12
10921;BME280;5513;50.580;8.818;2023-07-13T09:02:02;99101.31;;;21.75;69.75
10921;BME280;5513;50.580;8.818;2023-07-13T09:04:42;99095.72;;;21.93;68.65
10921;BME280;5513;50.580;8.818;2023-07-13T09:07:24;99105.03;;;21.66;70.07
10921;BME280;5513;50.580;8.818;2023-07-13T09:10:02;99101.31;;;21.67;69.07
10921;BME280;5513;50.580;8.818;2023-07-13T09:12:39;99093.91;;;21.77;68.73
10921;BME280;5513;50.580;8.818;2023-07-13T09:15:20;99100.28;;;21.92;66.06
10921;BME280;5513;50.580;8.818;2023-07-13T09:17:53;99097.06;;;21.89;64.49
10921;BME280;5513;50.580;8.818;2023-07-13T09:20:28;99106.53;;;21.60;65.15
10921;BME280;5513;50.580;8.818;2023-07-13T09:23:04;99102.34;;;21.74;64.68
10921;BME280;5513;50.580;8.818;2023-07-13T09:25:35;99101.69;;;21.56;67.03
10921;BME280;5513;50.580;8.818;2023-07-13T09:28:14;99093.41;;;21.74;66.13
10921;BME280;5513;50.580;8.818;2023-07-13T09:30:51;99095.56;;;21.86;64.17
10921;BME280;5513;50.580;8.818;2023-07-13T09:33:21;99090.94;;;22.19;62.11
10921;BME280;5513;50.580;8.818;2023-07-13T09:35:50;99090.78;;;22.05;62.12
10921;BME280;5513;50.580;8.818;2023-07-13T09:38:22;99099.69;;;22.30;61.06
10921;BME280;5513;50.580;8.818;2023-07-13T09:41:01;99096.19;;;22.05;61.44
10921;BME280;5513;50.580;8.818;2023-07-13T09:43:32;99087.72;;;22.63;59.52
10921;BME280;5513;50.580;8.818;2023-07-13T09:46:01;99085.56;;;22.59;59.03
10921;BME280;5513;50.580;8.818;2023-07-13T09:48:34;99094.28;;;22.69;57.60
10921;BME280;5513;50.580;8.818;2023-07-13T09:51:09;99092.25;;;22.71;58.03
10921;BME280;5513;50.580;8.818;2023-07-13T09:53:43;99093.72;;;22.73;59.35
10921;BME280;5513;50.580;8.818;2023-07-13T09:56:22;99084.56;;;22.82;56.85
10921;BME280;5513;50.580;8.818;2023-07-13T09:58:51;99088.56;;;22.95;56.79
10921;BME280;5513;50.580;8.818;2023-07-13T10:01:32;99094.41;;;22.75;58.42
10921;BME280;5513;50.580;8.818;2023-07-13T10:04:01;99101.19;;;22.71;56.85
10921;BME280;5513;50.580;8.818;2023-07-13T10:06:30;99083.38;;;23.54;55.62
10921;BME280;5513;50.580;8.818;2023-07-13T10:08:59;99089.16;;;23.05;55.46
10921;BME280;5513;50.580;8.818;2023-07-13T10:11:29;99081.47;;;22.94;56.21
10921;BME280;5513;50.580;8.818;2023-07-13T10:14:01;99090.44;;;22.94;57.08
10921;BME280;5513;50.580;8.818;2023-07-13T10:16:32;99088.22;;;23.21;56.45
10921;BME280;5513;50.580;8.818;2023-07-13T10:19:03;99097.38;;;23.95;55.40
10921;BME280;5513;50.580;8.818;2023-07-13T10:21:38;99088.00;;;23.07;55.11
10921;BME280;5513;50.580;8.818;2023-07-13T10:24:15;99094.34;;;23.14;54.91
10921;BME280;5513;50.580;8.818;2023-07-13T10:26:48;99091.88;;;23.28;53.71
10921;BME280;5513;50.580;8.818;2023-07-13T10:29:24;99096.16;;;23.45;53.00
10921;BME280;5513;50.580;8.818;2023-07-13T10:31:54;99085.66;;;23.27;53.54
10921;BME280;5513;50.580;8.818;2023-07-13T10:34:25;99076.53;;;23.66;52.74
10921;BME280;5513;50.580;8.818;2023-07-13T10:36:54;99090.19;;;23.87;52.34
10921;BME280;5513;50.580;8.818;2023-07-13T10:39:28;99090.56;;;23.99;50.99
10921;BME280;5513;50.580;8.818;2023-07-13T10:42:01;99090.59;;;24.43;51.12
10921;BME280;5513;50.580;8.818;2023-07-13T10:44:34;99089.47;;;24.38;48.37
10921;BME280;5513;50.580;8.818;2023-07-13T10:47:06;99103.88;;;24.74;48.43
10921;BME280;5513;50.580;8.818;2023-07-13T10:49:36;99100.56;;;24.13;47.08
10921;BME280;5513;50.580;8.818;2023-07-13T10:52:42;99090.19;;;24.61;47.18
10921;BME280;5513;50.580;8.818;2023-07-13T10:55:41;99100.44;;;24.21;46.53
10921;BME280;5513;50.580;8.818;2023-07-13T10:58:32;99101.78;;;24.91;47.05
10921;BME280;5513;50.580;8.818;2023-07-13T11:01:07;99101.13;;;25.04;45.77
10921;BME280;5513;50.580;8.818;2023-07-13T11:03:48;99109.31;;;23.86;48.64
10921;BME280;5513;50.580;8.818;2023-07-13T11:06:31;99120.88;;;23.34;51.81
10921;BME280;5513;50.580;8.818;2023-07-13T11:09:18;99101.09;;;23.19;51.57
10921;BME280;5513;50.580;8.818;2023-07-13T11:11:49;99100.69;;;23.45;51.78
10921;BME280;5513;50.580;8.818;2023-07-13T11:14:29;99104.75;;;24.01;50.91
10921;BME280;5513;50.580;8.818;2023-07-13T11:16:58;99094.75;;;24.97;47.83
10921;BME280;5513;50.580;8.818;2023-07-13T11:19:40;99098.91;;;24.78;47.21
10921;BME280;5513;50.580;8.818;2023-07-13T11:22:15;99095.03;;;23.17;51.55
10921;BME280;5513;50.580;8.818;2023-07-13T11:24:54;99100.19;;;24.31;49.12
10921;BME280;5513;50.580;8.818;2023-07-13T11:27:35;99091.84;;;24.98;47.62
10921;BME280;5513;50.580;8.818;2023-07-13T11:30:31;99097.53;;;25.39;45.26
10921;BME280;5513;50.580;8.818;2023-07-13T11:33:07;99085.69;;;25.26;45.77
10921;BME280;5513;50.580;8.818;2023-07-13T11:35:45;99093.47;;;24.93;46.18
10921;BME280;5513;50.580;8.818;2023-07-13T11:38:16;99083.66;;;24.26;47.68
10921;BME280;5513;50.580;8.818;2023-07-13T11:40:48;99089.38;;;24.31;48.85
10921;BME280;5513;50.580;8.818;2023-07-13T11:43:23;99089.41;;;24.67;47.68
10921;BME280;5513;50.580;8.818;2023-07-13T11:45:55;99092.97;;;24.68;47.33
10921;BME280;5513;50.580;8.818;2023-07-13T11:48:27;99095.31;;;24.12;47.64
10921;BME280;5513;50.580;8.818;2023-07-13T11:51:00;99097.94;;;23.90;50.27
10921;BME280;5513;50.580;8.818;2023-07-13T11:53:36;99087.19;;;24.12;48.60
10921;BME280;5513;50.580;8.818;2023-07-13T11:56:07;99100.19;;;24.31;47.43
10921;BME280;5513;50.580;8.818;2023-07-13T11:58:38;99080.69;;;24.36;46.75
10921;BME280;5513;50.580;8.818;2023-07-13T12:01:10;99079.38;;;24.32;46.40
10921;BME280;5513;50.580;8.818;2023-07-13T12:03:43;99082.00;;;24.25;46.38
10921;BME280;5513;50.580;8.818;2023-07-13T12:06:27;99078.63;;;24.52;46.38
10921;BME280;5513;50.580;8.818;2023-07-13T12:08:57;99082.06;;;24.17;47.95
10921;BME280;5513;50.580;8.818;2023-07-13T12:11:26;99082.63;;;24.12;48.08
10921;BME280;5513;50.580;8.818;2023-07-13T12:13:57;99087.59;;;24.53;47.47
10921;BME280;5513;50.580;8.818;2023-07-13T12:16:27;99081.78;;;24.92;47.05
10921;BME280;5513;50.580;8.818;2023-07-13T12:18:57;99089.59;;;24.80;47.81
10921;BME280;5513;50.580;8.818;2023-07-13T12:21:30;99086.16;;;24.72;47.34
10921;BME280;5513;50.580;8.818;2023-07-13T12:24:00;99084.91;;;24.74;48.03
10921;BME280;5513;50.580;8.818;2023-07-13T12:26:31;99092.75;;;24.84;48.84
10921;BME280;5513;50.580;8.818;2023-07-13T12:29:05;99091.22;;;24.31;49.32
10921;BME280;5513;50.580;8.818;2023-07-13T12:31:36;99088.06;;;24.42;47.83
10921;BME280;5513;50.580;8.818;2023-07-13T12:34:07;99093.75;;;24.47;46.52
10921;BME280;5513;50.580;8.818;2023-07-13T12:36:47;99090.22;;;24.46;47.26
10921;BME280;5513;50.580;8.818;2023-07-13T12:39:19;99093.41;;;24.35;46.99
10921;BME280;5513;50.580;8.818;2023-07-13T12:41:48;99092.63;;;24.56;45.85
10921;BME280;5513;50.580;8.818;2023-07-13T12:44:27;99103.72;;;23.87;46.58
10921;BME280;5513;50.580;8.818;2023-07-13T12:47:04;99091.03;;;24.03;46.68
10921;BME280;5513;50.580;8.818;2023-07-13T12:49:33;99093.06;;;24.30;46.60
10921;BME280;5513;50.580;8.818;2023-07-13T12:52:04;99097.59;;;24.23;46.42
10921;BME280;5513;50.580;8.818;2023-07-13T12:54:32;99097.75;;;24.21;46.19
10921;BME280;5513;50.580;8.818;2023-07-13T12:57:04;99097.88;;;24.13;45.80
10921;BME280;5513;50.580;8.818;2023-07-13T12:59:37;99091.53;;;24.36;44.86
10921;BME280;5513;50.580;8.818;2023-07-13T13:02:25;99090.06;;;24.69;43.83
10921;BME280;5513;50.580;8.818;2023-07-13T13:04:55;99086.41;;;25.13;43.07
10921;BME280;5513;50.580;8.818;2023-07-13T13:07:24;99072.13;;;25.26;41.73
10921;BME280;5513;50.580;8.818;2023-07-13T13:09:59;99092.91;;;25.19;42.74
10921;BME280;5513;50.580;8.818;2023-07-13T13:12:28;99085.22;;;24.65;42.95
10921;BME280;5513;50.580;8.818;2023-07-13T13:15:00;99082.03;;;25.12;42.53
10921;BME280;5513;50.580;8.818;2023-07-13T13:17:31;99081.22;;;25.61;42.31
10921;BME280;5513;50.580;8.818;2023-07-13T13:20:00;99088.28;;;25.13;41.92
10921;BME280;5513;50.580;8.818;2023-07-13T13:22:28;99099.84;;;24.85;43.10
10921;BME280;5513;50.580;8.818;2023-07-13T13:24:58;99095.34;;;24.41;43.79
10921;BME280;5513;50.580;8.818;2023-07-13T13:27:27;99102.13;;;23.93;46.38